Time;durP1;ratioP1;P1;durP2;ratioP2;P2;SDS_P1;SDS_P2;PMS_P1;PMS_P2;Temp;Humidity;BMP_temperature;BMP_pressure;BME280_temperature;BME280_humidity;BME280_pressure;Samples;Min_cycle;Max_cycle;Signal;HPM_P1;HPM_P2
2024/01/21 00:00:09;;;;;;;28.00;8.00;;;-2.50;99.90;;;;;;5039203;28;20492;-85
2024/01/21 00:02:34;;;;;;;27.52;9.23;;;-2.50;99.90;;;;;;5038729;28;20165;-84
2024/01/21 00:05:00;;;;;;;29.60;9.00;;;-2.50;99.90;;;;;;5021252;28;20178;-84
2024/01/21 00:07:26;;;;;;;29.50;8.20;;;-2.50;99.90;;;;;;5020693;28;20247;-84
2024/01/21 00:09:51;;;;;;;29.37;8.20;;;-2.60;99.90;;;;;;5020937;28;20207;-84
2024/01/21 00:12:17;;;;;;;32.43;9.50;;;-2.60;99.90;;;;;;5039247;28;20656;-85
2024/01/21 00:14:42;;;;;;;26.93;7.57;;;-2.60;99.90;;;;;;5038919;28;20207;-85
2024/01/21 00:17:08;;;;;;;28.50;9.83;;;-2.50;99.90;;;;;;5038746;28;20243;-85
2024/01/21 00:19:34;;;;;;;38.27;9.77;;;-2.50;99.90;;;;;;5038686;28;20255;-84
2024/01/21 00:21:59;;;;;;;27.97;8.53;;;-2.50;99.90;;;;;;5021587;28;20410;-85
2024/01/21 00:24:25;;;;;;;29.20;9.20;;;-2.50;99.90;;;;;;5039022;28;20167;-84
2024/01/21 00:26:51;;;;;;;25.80;8.10;;;-2.50;99.90;;;;;;5038482;28;20246;-85
2024/01/21 00:29:16;;;;;;;28.83;8.80;;;-2.40;99.90;;;;;;5038477;28;20226;-84
2024/01/21 00:31:42;;;;;;;31.63;9.40;;;-2.40;99.90;;;;;;5020791;28;20172;-85
2024/01/21 00:34:08;;;;;;;30.20;9.83;;;-2.40;99.90;;;;;;5020624;28;20270;-84
2024/01/21 00:36:34;;;;;;;31.90;9.30;;;-2.50;99.90;;;;;;5038408;28;20455;-84
2024/01/21 00:38:59;;;;;;;26.33;9.83;;;-2.40;99.90;;;;;;5038909;28;20668;-84
2024/01/21 00:41:25;;;;;;;29.87;9.37;;;-2.40;99.90;;;;;;5038167;28;20235;-85
2024/01/21 00:43:51;;;;;;;31.23;9.37;;;-2.40;99.90;;;;;;5038130;28;20334;-84
2024/01/21 00:46:16;;;;;;;24.57;8.13;;;-2.30;99.90;;;;;;5020399;28;20196;-84
2024/01/21 00:48:42;;;;;;;29.27;10.50;;;-2.30;99.90;;;;;;5019171;28;20169;-84
2024/01/21 00:51:08;;;;;;;27.93;11.10;;;-2.30;99.90;;;;;;5020711;28;20166;-85
2024/01/21 00:53:33;;;;;;;30.13;9.10;;;-2.30;99.90;;;;;;5021033;28;20219;-83
2024/01/21 00:55:59;;;;;;;35.00;11.77;;;-2.20;99.90;;;;;;5038372;28;20191;-85
2024/01/21 00:58:24;;;;;;;32.17;10.37;;;-2.20;99.90;;;;;;5039790;28;20170;-85
2024/01/21 01:00:50;;;;;;;33.47;10.77;;;-2.20;99.90;;;;;;5039818;28;20168;-84
2024/01/21 01:03:16;;;;;;;33.53;10.30;;;-2.20;99.90;;;;;;5020210;28;20252;-85
2024/01/21 01:05:41;;;;;;;32.80;11.20;;;-2.10;99.90;;;;;;5039005;28;20161;-84
2024/01/21 01:08:07;;;;;;;32.07;11.00;;;-2.10;99.90;;;;;;5038124;28;20192;-84
2024/01/21 01:10:33;;;;;;;29.97;10.80;;;-2.10;99.90;;;;;;5019728;28;20228;-85
2024/01/21 01:12:58;;;;;;;30.50;11.07;;;-2.10;99.90;;;;;;5037705;28;20256;-84
2024/01/21 01:15:24;;;;;;;29.53;11.30;;;-2.10;99.90;;;;;;5019505;28;20168;-84
2024/01/21 01:17:51;;;;;;;32.67;11.47;;;-2.10;99.90;;;;;;5037555;28;20866;-84
2024/01/21 01:20:17;;;;;;;34.65;11.27;;;-2.10;99.90;;;;;;5020497;28;20191;-85
2024/01/21 01:22:43;;;;;;;32.70;10.95;;;-2.10;99.90;;;;;;5038354;28;20169;-84
2024/01/21 01:25:09;;;;;;;31.30;11.20;;;-2.10;99.90;;;;;;5038618;28;20169;-84
2024/01/21 01:27:35;;;;;;;33.33;10.95;;;-2.00;99.90;;;;;;5038180;28;20800;-85
2024/01/21 01:30:00;;;;;;;30.13;9.13;;;-2.00;99.90;;;;;;5038017;28;20165;-85
2024/01/21 01:32:26;;;;;;;33.17;11.47;;;-2.00;99.90;;;;;;5038085;28;20169;-85
2024/01/21 01:34:54;;;;;;;29.27;10.80;;;-2.00;99.90;;;;;;5037957;28;20260;-85
2024/01/21 01:37:21;;;;;;;29.90;9.95;;;-2.00;99.90;;;;;;5037977;28;20192;-85
2024/01/21 01:39:47;;;;;;;33.58;11.60;;;-2.00;99.90;;;;;;5037797;28;20223;-84
2024/01/21 01:42:13;;;;;;;32.30;11.40;;;-1.90;99.90;;;;;;5019525;28;20166;-84
2024/01/21 01:44:40;;;;;;;32.67;11.43;;;-1.90;99.90;;;;;;5019326;28;20208;-84
2024/01/21 01:47:08;;;;;;;34.25;11.07;;;-1.90;99.90;;;;;;5038401;28;20189;-84
2024/01/21 01:49:34;;;;;;;30.90;11.40;;;-1.90;99.90;;;;;;5037698;28;20166;-85
2024/01/21 01:52:00;;;;;;;31.17;12.20;;;-1.90;99.90;;;;;;5037805;28;20169;-84
2024/01/21 01:54:32;;;;;;;31.17;10.00;;;-1.90;99.90;;;;;;5037540;28;20176;-84
2024/01/21 01:56:58;;;;;;;30.63;11.30;;;-1.80;99.90;;;;;;5036873;28;20467;-84
2024/01/21 01:59:26;;;;;;;31.58;11.35;;;-1.80;99.90;;;;;;5020816;28;20169;-84
2024/01/21 02:01:52;;;;;;;33.25;12.48;;;-1.70;99.90;;;;;;5037695;28;20226;-84
2024/01/21 02:04:18;;;;;;;35.37;13.17;;;-1.70;99.90;;;;;;5037022;28;20634;-85
2024/01/21 02:06:44;;;;;;;30.52;10.55;;;-1.70;99.90;;;;;;5036972;28;20420;-83
2024/01/21 02:09:09;;;;;;;28.80;10.57;;;-1.70;99.90;;;;;;5019325;28;20172;-84
2024/01/21 02:11:35;;;;;;;31.63;10.40;;;-1.70;99.90;;;;;;5037606;28;20233;-84
2024/01/21 02:14:01;;;;;;;32.97;11.57;;;-1.70;99.90;;;;;;5037538;28;20165;-84
2024/01/21 02:16:26;;;;;;;30.03;10.67;;;-1.60;99.90;;;;;;5019644;28;20310;-85
2024/01/21 02:18:53;;;;;;;33.83;11.00;;;-1.60;99.90;;;;;;5037694;28;20166;-84
2024/01/21 02:21:19;;;;;;;30.60;9.50;;;-1.60;99.90;;;;;;5018304;28;20167;-84
2024/01/21 02:23:44;;;;;;;32.92;11.30;;;-1.60;99.90;;;;;;5036468;28;20166;-85
2024/01/21 02:26:10;;;;;;;30.90;10.23;;;-1.60;99.90;;;;;;5037149;28;20184;-84
2024/01/21 02:28:36;;;;;;;29.63;11.50;;;-1.60;99.90;;;;;;5037212;28;20199;-84
2024/01/21 02:31:01;;;;;;;30.93;9.70;;;-1.50;99.90;;;;;;5036810;28;20173;-84
2024/01/21 02:33:27;;;;;;;29.50;10.37;;;-1.50;99.90;;;;;;5019628;28;20177;-85
2024/01/21 02:35:53;;;;;;;27.93;9.40;;;-1.50;99.90;;;;;;5036984;28;20166;-84
2024/01/21 02:38:19;;;;;;;31.10;11.17;;;-1.50;99.90;;;;;;5037050;28;20191;-84
2024/01/21 02:40:44;;;;;;;31.00;10.13;;;-1.50;99.90;;;;;;5036790;28;20912;-85
2024/01/21 02:43:10;;;;;;;34.27;10.53;;;-1.50;99.90;;;;;;5036593;28;20166;-84
2024/01/21 02:45:36;;;;;;;30.73;10.60;;;-1.50;99.90;;;;;;5037177;28;20158;-84
2024/01/21 02:48:01;;;;;;;29.10;9.80;;;-1.50;99.90;;;;;;5018880;28;20636;-84
2024/01/21 02:50:27;;;;;;;31.87;10.37;;;-1.50;99.90;;;;;;5036629;28;20162;-84
2024/01/21 02:52:53;;;;;;;37.03;9.97;;;-1.50;99.90;;;;;;5037098;28;20180;-85
2024/01/21 02:55:18;;;;;;;34.20;11.00;;;-1.50;99.90;;;;;;5036813;28;20627;-84
2024/01/21 02:57:44;;;;;;;30.57;9.63;;;-1.50;99.90;;;;;;5019184;28;20268;-84
2024/01/21 03:00:10;;;;;;;28.73;9.40;;;-1.50;99.90;;;;;;5019259;28;20204;-84
2024/01/21 03:02:36;;;;;;;28.00;9.68;;;-1.60;99.90;;;;;;5036206;28;20171;-84
2024/01/21 03:05:02;;;;;;;33.28;10.70;;;-1.50;99.90;;;;;;5036125;28;20539;-84
2024/01/21 03:07:27;;;;;;;29.80;10.00;;;-1.60;99.90;;;;;;5018610;28;20219;-84
2024/01/21 03:09:53;;;;;;;28.67;9.20;;;-1.60;99.90;;;;;;5035841;28;20173;-84
2024/01/21 03:12:19;;;;;;;30.80;11.93;;;-1.60;99.90;;;;;;5038163;28;20235;-84
2024/01/21 03:14:44;;;;;;;29.70;10.43;;;-1.60;99.90;;;;;;5040452;28;20249;-84
2024/01/21 03:17:10;;;;;;;29.23;9.50;;;-1.60;99.90;;;;;;5040432;28;20224;-84
2024/01/21 03:19:36;;;;;;;28.60;9.13;;;-1.60;99.90;;;;;;5040546;28;20541;-84
2024/01/21 03:22:02;;;;;;;28.80;10.33;;;-1.60;99.90;;;;;;5040002;28;20216;-84
2024/01/21 03:24:27;;;;;;;33.33;11.27;;;-1.60;99.90;;;;;;5039792;28;20178;-84
2024/01/21 03:26:53;;;;;;;35.97;11.93;;;-1.60;99.90;;;;;;5039624;28;20192;-83
2024/01/21 03:29:20;;;;;;;29.37;12.27;;;-1.50;99.90;;;;;;5040209;28;20172;-84
2024/01/21 03:31:46;;;;;;;33.50;11.02;;;-1.50;99.90;;;;;;5039278;28;20169;-84
2024/01/21 03:34:12;;;;;;;31.70;11.50;;;-1.50;99.90;;;;;;5039148;28;20169;-83
2024/01/21 03:36:37;;;;;;;29.73;10.87;;;-1.50;99.90;;;;;;5039220;28;20327;-84
2024/01/21 03:39:03;;;;;;;32.37;10.17;;;-1.50;99.90;;;;;;5040376;28;20161;-84
2024/01/21 03:41:29;;;;;;;28.47;9.40;;;-1.50;99.90;;;;;;5039913;28;20708;-85
2024/01/21 03:43:56;;;;;;;32.87;11.00;;;-1.60;99.70;;;;;;5039853;28;20415;-84
2024/01/21 03:46:23;;;;;;;33.22;11.63;;;-1.50;98.90;;;;;;5021879;28;20612;-84
2024/01/21 03:48:48;;;;;;;29.08;11.00;;;-1.60;97.90;;;;;;5021472;28;20219;-84
2024/01/21 03:51:14;;;;;;;33.90;11.30;;;-1.60;97.80;;;;;;5039728;28;20165;-84
2024/01/21 03:53:40;;;;;;;33.30;11.50;;;-1.60;96.90;;;;;;5039404;28;20530;-84
2024/01/21 03:56:07;;;;;;;33.65;12.45;;;-1.60;96.50;;;;;;5021696;28;20204;-84
2024/01/21 03:58:32;;;;;;;32.97;11.98;;;-1.60;97.10;;;;;;5021922;28;20178;-84
2024/01/21 04:00:58;;;;;;;28.97;10.70;;;-1.70;97.60;;;;;;5021850;28;20177;-84
2024/01/21 04:03:25;;;;;;;36.23;12.10;;;-1.70;98.70;;;;;;5039325;28;20404;-84
2024/01/21 04:05:50;;;;;;;33.05;11.68;;;-1.70;98.90;;;;;;5039413;28;20397;-84
2024/01/21 04:08:17;;;;;;;31.97;9.47;;;-1.70;98.90;;;;;;5038679;28;20201;-84
2024/01/21 04:10:43;;;;;;;32.08;11.13;;;-1.70;99.80;;;;;;5021584;28;20627;-84
2024/01/21 04:13:09;;;;;;;32.88;12.18;;;-1.70;99.90;;;;;;5038523;28;20161;-84
2024/01/21 04:15:35;;;;;;;32.58;10.85;;;-1.80;99.90;;;;;;5021068;28;20176;-84
2024/01/21 04:18:01;;;;;;;33.63;11.10;;;-1.80;99.90;;;;;;5038340;28;20209;-84
2024/01/21 04:20:27;;;;;;;35.60;12.82;;;-1.80;99.90;;;;;;5020787;28;20542;-84
2024/01/21 04:22:52;;;;;;;32.13;11.60;;;-1.80;99.30;;;;;;5039206;28;20164;-84
2024/01/21 04:25:18;;;;;;;29.57;10.73;;;-1.80;98.30;;;;;;5039232;28;20165;-84
2024/01/21 04:27:45;;;;;;;36.77;11.17;;;-1.80;99.20;;;;;;5038853;28;20195;-84
2024/01/21 04:30:11;;;;;;;30.08;10.35;;;-1.80;99.50;;;;;;5038748;28;20173;-84
2024/01/21 04:32:36;;;;;;;33.43;11.10;;;-1.80;98.40;;;;;;5038656;28;20172;-84
2024/01/21 04:35:02;;;;;;;41.37;12.83;;;-1.80;98.10;;;;;;5037800;28;20410;-84
2024/01/21 04:37:28;;;;;;;36.87;12.57;;;-1.80;98.60;;;;;;5020582;28;20211;-84
2024/01/21 04:39:53;;;;;;;31.83;11.00;;;-1.80;99.50;;;;;;5038592;28;20451;-84
2024/01/21 04:42:19;;;;;;;32.50;12.10;;;-1.80;99.20;;;;;;5020194;28;20168;-84
2024/01/21 04:44:45;;;;;;;35.13;10.93;;;-1.80;99.00;;;;;;5038266;28;20176;-84
2024/01/21 04:47:10;;;;;;;28.90;9.87;;;-1.80;99.50;;;;;;5038024;28;20203;-84
2024/01/21 04:49:36;;;;;;;32.73;9.40;;;-1.80;99.90;;;;;;5037721;28;20264;-84
2024/01/21 04:52:02;;;;;;;29.10;9.87;;;-1.80;99.90;;;;;;5038592;28;20172;-84
2024/01/21 04:54:28;;;;;;;36.07;11.87;;;-1.70;99.90;;;;;;5037531;28;20165;-84
2024/01/21 04:56:53;;;;;;;27.17;10.07;;;-1.70;99.90;;;;;;5037572;28;20448;-84
2024/01/21 04:59:19;;;;;;;27.63;9.60;;;-1.70;99.90;;;;;;5037804;28;20164;-83
2024/01/21 05:01:48;;;;;;;29.07;9.23;;;-1.70;99.90;;;;;;5037647;28;20164;-83
2024/01/21 05:04:14;;;;;;;30.95;9.25;;;-1.60;99.90;;;;;;5037371;28;20455;-84
2024/01/21 05:06:40;;;;;;;28.43;9.50;;;-1.60;99.90;;;;;;5037205;28;20190;-84
2024/01/21 05:09:05;;;;;;;34.17;10.03;;;-1.60;99.90;;;;;;5037236;28;20569;-84
2024/01/21 05:11:31;;;;;;;31.67;9.80;;;-1.60;99.90;;;;;;5037270;28;20570;-84
2024/01/21 05:13:57;;;;;;;32.27;9.10;;;-1.50;99.90;;;;;;5037469;28;20170;-84
2024/01/21 05:16:22;;;;;;;32.87;9.77;;;-1.50;99.90;;;;;;5037410;28;20204;-84
2024/01/21 05:18:48;;;;;;;27.73;8.70;;;-1.40;97.40;;;;;;5019273;28;20506;-84
2024/01/21 05:21:21;;;;;;;27.73;9.00;;;-1.40;95.30;;;;;;5020486;28;20209;-84
2024/01/21 05:23:51;;;;;;;28.05;9.25;;;-1.40;93.20;;;;;;5038192;28;20160;-84
2024/01/21 05:26:19;;;;;;;29.10;8.95;;;-1.30;93.00;;;;;;5019633;28;20199;-83
2024/01/21 05:28:46;;;;;;;35.88;9.30;;;-1.30;92.30;;;;;;5036925;28;20166;-84
2024/01/21 05:31:12;;;;;;;32.78;9.32;;;-1.30;90.10;;;;;;5037597;28;20227;-84
2024/01/21 05:33:40;;;;;;;25.40;8.20;;;-1.30;90.90;;;;;;5019694;28;20256;-84
2024/01/21 05:36:06;;;;;;;29.63;8.32;;;-1.30;90.50;;;;;;5035859;28;20248;-83
2024/01/21 05:38:32;;;;;;;25.27;7.25;;;-1.30;88.20;;;;;;5037093;28;20533;-84
2024/01/21 05:40:57;;;;;;;25.87;8.13;;;-1.30;91.60;;;;;;5036680;28;20245;-84
2024/01/21 05:43:23;;;;;;;29.60;8.77;;;-1.30;92.10;;;;;;5036567;28;20491;-83
2024/01/21 05:45:49;;;;;;;28.80;9.27;;;-1.20;93.30;;;;;;5018670;28;20176;-84
2024/01/21 05:48:15;;;;;;;27.37;8.27;;;-1.20;92.40;;;;;;5036475;28;20254;-84
2024/01/21 05:50:40;;;;;;;25.47;8.43;;;-1.30;90.70;;;;;;5036831;28;20414;-84
2024/01/21 05:53:07;;;;;;;27.63;8.47;;;-1.20;90.60;;;;;;5036649;28;20172;-84
2024/01/21 05:55:33;;;;;;;28.67;9.82;;;-1.30;88.90;;;;;;5037396;28;20160;-84
2024/01/21 05:57:59;;;;;;;26.73;8.52;;;-1.30;88.10;;;;;;5036392;28;20202;-84
2024/01/21 06:00:24;;;;;;;25.43;8.43;;;-1.30;89.40;;;;;;5018429;28;20181;-83
2024/01/21 06:02:56;;;;;;;28.80;8.50;;;-1.30;90.00;;;;;;5036455;28;20739;-83
2024/01/21 06:05:22;;;;;;;27.13;8.10;;;-1.40;90.80;;;;;;5037355;28;20925;-84
2024/01/21 06:07:47;;;;;;;26.97;8.80;;;-1.30;92.20;;;;;;5019568;28;20304;-84
2024/01/21 06:10:13;;;;;;;27.27;8.80;;;-1.40;93.60;;;;;;5038118;28;20415;-84
2024/01/21 06:12:38;;;;;;;28.37;7.90;;;-1.30;95.60;;;;;;5036424;28;20590;-84
2024/01/21 06:15:05;;;;;;;25.07;8.30;;;-1.40;97.00;;;;;;5018606;28;20689;-84
2024/01/21 06:17:30;;;;;;;28.35;8.32;;;-1.40;96.20;;;;;;5035990;28;20219;-84
2024/01/21 06:19:57;;;;;;;28.33;9.13;;;-1.40;95.60;;;;;;5036520;28;20165;-84
2024/01/21 06:22:23;;;;;;;25.88;7.93;;;-1.30;96.00;;;;;;5036667;28;20254;-84
2024/01/21 06:24:49;;;;;;;25.13;7.90;;;-1.30;95.70;;;;;;5018453;28;20204;-84
2024/01/21 06:27:15;;;;;;;27.60;8.30;;;-1.30;95.70;;;;;;5035756;28;20185;-84
2024/01/21 06:29:44;;;;;;;26.50;7.80;;;-1.20;95.20;;;;;;5035775;28;20227;-84
2024/01/21 06:32:10;;;;;;;33.10;7.93;;;-1.20;96.20;;;;;;5036224;28;20528;-85
2024/01/21 06:34:35;;;;;;;24.20;7.80;;;-1.20;95.90;;;;;;5035782;28;20158;-84
2024/01/21 06:37:01;;;;;;;27.63;7.10;;;-1.20;97.50;;;;;;5035896;28;20706;-84
2024/01/21 06:39:26;;;;;;;25.30;6.70;;;-1.20;97.70;;;;;;5036247;28;20168;-84
2024/01/21 06:41:52;;;;;;;28.17;8.50;;;-1.20;96.60;;;;;;5035861;28;20244;-84
2024/01/21 06:44:18;;;;;;;24.35;6.90;;;-1.10;96.30;;;;;;5035806;28;20650;-84
2024/01/21 06:46:44;;;;;;;23.80;7.00;;;-1.20;96.30;;;;;;5035087;28;20264;-84
2024/01/21 06:49:10;;;;;;;27.80;8.27;;;-1.20;97.30;;;;;;5035989;28;20177;-84
2024/01/21 06:51:43;;;;;;;25.67;8.30;;;-1.20;97.10;;;;;;5035720;28;20408;-84
2024/01/21 06:54:09;;;;;;;29.45;7.95;;;-1.10;98.30;;;;;;5035849;28;20163;-84
2024/01/21 06:56:35;;;;;;;30.70;8.20;;;-1.10;96.30;;;;;;5018301;28;20582;-84
2024/01/21 06:59:00;;;;;;;27.80;8.47;;;-1.10;97.20;;;;;;5036106;28;20193;-85
2024/01/21 07:01:26;;;;;;;28.33;8.80;;;-1.10;98.00;;;;;;5018101;28;20527;-84
2024/01/21 07:03:52;;;;;;;27.40;8.20;;;-1.10;99.10;;;;;;5018534;28;20170;-84
2024/01/21 07:06:18;;;;;;;24.02;7.47;;;-1.10;98.60;;;;;;5036122;28;20323;-83
2024/01/21 07:08:43;;;;;;;31.10;9.63;;;-1.10;98.50;;;;;;5018165;28;20668;-83
2024/01/21 07:11:10;;;;;;;28.93;9.30;;;-1.00;99.60;;;;;;5018149;28;20541;-83
2024/01/21 07:13:35;;;;;;;27.48;9.40;;;-1.00;98.40;;;;;;5036030;28;20166;-84
2024/01/21 07:16:02;;;;;;;27.40;8.80;;;-1.00;98.50;;;;;;5035852;28;20188;-84
2024/01/21 07:18:27;;;;;;;28.33;8.32;;;-0.90;98.20;;;;;;5036196;28;20190;-84
2024/01/21 07:20:53;;;;;;;26.90;8.53;;;-0.90;98.10;;;;;;5036211;28;20170;-84
2024/01/21 07:23:19;;;;;;;23.80;7.50;;;-0.90;98.40;;;;;;5018782;28;20164;-83
2024/01/21 07:25:46;;;;;;;25.13;7.20;;;-0.80;98.40;;;;;;5036311;28;20242;-84
2024/01/21 07:28:12;;;;;;;25.25;7.15;;;-0.80;98.50;;;;;;5035542;28;20586;-84
2024/01/21 07:30:38;;;;;;;24.63;7.50;;;-0.80;98.70;;;;;;5035853;28;20162;-84
2024/01/21 07:33:03;;;;;;;25.47;8.10;;;-0.80;99.30;;;;;;5036051;28;20179;-84
2024/01/21 07:35:29;;;;;;;26.03;8.73;;;-0.80;99.90;;;;;;5017894;28;20176;-83
2024/01/21 07:37:55;;;;;;;25.47;8.20;;;-0.80;99.90;;;;;;5035772;28;20205;-84
2024/01/21 07:40:22;;;;;;;27.37;8.80;;;-0.80;99.90;;;;;;5035725;28;20407;-83
2024/01/21 07:42:47;;;;;;;28.67;8.32;;;-0.80;99.90;;;;;;5018175;28;20170;-84
2024/01/21 07:45:13;;;;;;;26.50;7.90;;;-0.80;99.90;;;;;;5018305;28;20162;-83
2024/01/21 07:47:39;;;;;;;26.57;8.40;;;-0.80;99.90;;;;;;5036035;28;20421;-84
2024/01/21 07:50:05;;;;;;;26.17;8.77;;;-0.80;99.90;;;;;;5035915;28;20181;-85
2024/01/21 07:52:31;;;;;;;27.75;8.07;;;-0.80;99.80;;;;;;5035407;28;20170;-85
2024/01/21 07:54:56;;;;;;;24.67;7.83;;;-0.70;99.00;;;;;;5035806;28;20164;-84
2024/01/21 07:57:22;;;;;;;27.93;8.00;;;-0.70;99.00;;;;;;5035877;28;20686;-85
2024/01/21 07:59:48;;;;;;;24.67;7.73;;;-0.70;99.00;;;;;;5039464;28;20173;-84
2024/01/21 08:02:13;;;;;;;26.20;8.27;;;-0.70;98.30;;;;;;5038854;28;20162;-83
2024/01/21 08:04:39;;;;;;;25.60;7.23;;;-0.70;98.90;;;;;;5021204;28;20224;-84
2024/01/21 08:07:04;;;;;;;24.97;9.30;;;-0.70;99.70;;;;;;5021485;28;20204;-84
2024/01/21 08:09:30;;;;;;;26.00;7.57;;;-0.70;97.80;;;;;;5020880;28;20189;-84
2024/01/21 08:11:56;;;;;;;28.90;8.67;;;-0.70;97.30;;;;;;5021243;28;20177;-84
2024/01/21 08:14:22;;;;;;;24.47;7.40;;;-0.60;97.00;;;;;;5038870;28;20408;-84
2024/01/21 08:16:47;;;;;;;23.00;7.10;;;-0.60;96.60;;;;;;5021455;28;20206;-84
2024/01/21 08:19:15;;;;;;;30.43;7.70;;;-0.50;95.30;;;;;;5039212;28;20244;-84
2024/01/21 08:21:40;;;;;;;30.67;9.25;;;-0.50;94.60;;;;;;5038836;28;20185;-83
2024/01/21 08:24:06;;;;;;;27.90;8.20;;;-0.40;93.90;;;;;;5038820;28;20212;-85
2024/01/21 08:26:32;;;;;;;28.30;8.63;;;-0.40;92.50;;;;;;5038870;28;20435;-85
2024/01/21 08:28:58;;;;;;;25.33;7.23;;;-0.30;90.20;;;;;;5038168;28;20205;-84
2024/01/21 08:31:23;;;;;;;27.65;8.25;;;-0.20;79.60;;;;;;5038364;28;20197;-84
2024/01/21 08:33:49;;;;;;;25.30;7.80;;;-0.20;78.10;;;;;;5039035;28;20650;-84
2024/01/21 08:36:15;;;;;;;26.10;8.10;;;-0.10;76.80;;;;;;5037908;28;21912;-84
2024/01/21 08:38:41;;;;;;;24.37;7.77;;;0.00;75.80;;;;;;5037948;28;20817;-84
2024/01/21 08:41:06;;;;;;;27.20;8.67;;;0.00;67.70;;;;;;5037847;28;20246;-84
2024/01/21 08:43:32;;;;;;;27.23;8.10;;;0.00;69.10;;;;;;5038143;28;20180;-84
2024/01/21 08:45:58;;;;;;;30.10;9.73;;;0.10;58.00;;;;;;5020532;28;20169;-84
2024/01/21 08:48:24;;;;;;;30.80;9.20;;;0.20;50.20;;;;;;5020104;28;20412;-84
2024/01/21 08:50:49;;;;;;;24.53;8.00;;;0.20;50.50;;;;;;5038036;28;20401;-84
2024/01/21 08:53:15;;;;;;;30.70;9.20;;;0.30;48.90;;;;;;5037446;28;20527;-82
2024/01/21 08:55:40;;;;;;;25.90;8.80;;;0.30;45.90;;;;;;5037922;28;20176;-83
2024/01/21 08:58:06;;;;;;;29.77;8.53;;;0.30;48.30;;;;;;5038282;28;20260;-84
2024/01/21 09:00:32;;;;;;;30.60;9.93;;;0.30;53.90;;;;;;5037387;28;20533;-84
2024/01/21 09:02:57;;;;;;;26.30;9.83;;;0.30;51.10;;;;;;5020149;28;20239;-85
2024/01/21 09:05:23;;;;;;;30.50;10.60;;;0.40;51.40;;;;;;5019773;28;20161;-84
2024/01/21 09:07:49;;;;;;;27.13;8.10;;;0.30;52.70;;;;;;5037666;28;20221;-83
2024/01/21 09:10:15;;;;;;;28.13;9.10;;;0.40;50.20;;;;;;5036152;28;20166;-83
2024/01/21 09:12:40;;;;;;;29.23;10.00;;;0.40;54.00;;;;;;5019123;28;20280;-83
2024/01/21 09:15:06;;;;;;;29.10;9.90;;;0.40;57.20;;;;;;5037280;28;20488;-84
2024/01/21 09:17:32;;;;;;;26.58;8.80;;;0.40;57.70;;;;;;5036619;28;20201;-84
2024/01/21 09:19:58;;;;;;;26.90;9.32;;;0.40;55.10;;;;;;5037579;28;20166;-84
2024/01/21 09:22:24;;;;;;;29.60;9.37;;;0.50;56.40;;;;;;5036729;28;20201;-83
2024/01/21 09:24:50;;;;;;;27.60;9.70;;;0.50;55.10;;;;;;5036619;28;20411;-84
2024/01/21 09:27:15;;;;;;;28.33;8.60;;;0.50;55.10;;;;;;5018317;28;20220;-83
2024/01/21 09:29:42;;;;;;;30.47;9.27;;;0.60;53.80;;;;;;5019102;28;20416;-83
2024/01/21 09:32:11;;;;;;;28.75;9.38;;;0.60;47.90;;;;;;5036672;28;20170;-82
2024/01/21 09:34:39;;;;;;;28.27;9.10;;;0.70;43.20;;;;;;5036057;28;20244;-82
2024/01/21 09:37:05;;;;;;;29.30;9.07;;;0.70;41.40;;;;;;5036315;28;20194;-84
2024/01/21 09:39:31;;;;;;;24.60;8.10;;;0.80;38.10;;;;;;5035843;28;20162;-82
2024/01/21 09:41:58;;;;;;;27.13;8.77;;;0.90;32.40;;;;;;5036758;28;20162;-84
2024/01/21 09:44:28;;;;;;;27.77;9.07;;;0.90;19.80;;;;;;5036606;28;20211;-82
2024/01/21 09:46:59;;;;;;;26.25;8.40;;;1.00;1.00;;;;;;5036089;28;20263;-82
2024/01/21 09:49:25;;;;;;;29.20;9.95;;;1.20;1.00;;;;;;5035403;28;20481;-82
2024/01/21 09:51:52;;;;;;;27.42;8.32;;;1.30;1.00;;;;;;5035922;28;20630;-84
2024/01/21 09:54:19;;;;;;;27.15;8.93;;;1.30;1.00;;;;;;5035990;28;20178;-82
2024/01/21 09:56:45;;;;;;;33.70;11.32;;;1.40;1.00;;;;;;5035735;28;20198;-83
2024/01/21 09:59:12;;;;;;;29.27;10.60;;;1.50;1.00;;;;;;5035810;28;20681;-84
2024/01/21 10:01:42;;;;;;;28.70;10.45;;;1.60;1.00;;;;;;5035854;28;20411;-84
2024/01/21 10:04:11;;;;;;;28.30;9.30;;;1.60;1.00;;;;;;5035940;28;20172;-82
2024/01/21 10:06:37;;;;;;;27.27;8.27;;;1.70;1.00;;;;;;5035586;28;20189;-82
2024/01/21 10:09:12;;;;;;;25.10;7.90;;;1.80;1.00;;;;;;5036176;28;20531;-84
2024/01/21 10:11:39;;;;;;;25.60;8.43;;;1.80;1.00;;;;;;5035883;28;20534;-84
2024/01/21 10:14:04;;;;;;;30.88;10.32;;;1.90;1.00;;;;;;5036747;28;20162;-82
2024/01/21 10:16:31;;;;;;;29.80;9.47;;;2.00;1.00;;;;;;5037176;28;20197;-83
2024/01/21 10:18:57;;;;;;;27.13;9.70;;;2.00;1.00;;;;;;5037094;28;20173;-82
2024/01/21 10:21:22;;;;;;;34.22;10.18;;;2.10;1.00;;;;;;5036500;28;20158;-84
2024/01/21 10:23:48;;;;;;;33.40;9.27;;;2.00;1.00;;;;;;5036024;28;20639;-84
2024/01/21 10:26:14;;;;;;;26.20;7.87;;;2.00;1.00;;;;;;5037677;28;20215;-85
2024/01/21 10:28:40;;;;;;;27.23;9.40;;;2.00;1.00;;;;;;5036434;28;20200;-84
2024/01/21 10:31:08;;;;;;;27.30;8.23;;;1.90;1.00;;;;;;5036932;28;20157;-84
2024/01/21 10:33:34;;;;;;;27.05;8.90;;;1.90;1.00;;;;;;5037030;28;20906;-83
2024/01/21 10:36:01;;;;;;;27.23;8.43;;;2.00;1.00;;;;;;5037249;28;20276;-85
2024/01/21 10:38:31;;;;;;;30.88;8.73;;;2.00;1.00;;;;;;5038012;28;20636;-85
2024/01/21 10:40:59;;;;;;;30.00;10.25;;;2.00;1.00;;;;;;5037789;28;20497;-84
2024/01/21 10:43:29;;;;;;;26.10;8.65;;;2.00;1.00;;;;;;5036650;28;20162;-83
2024/01/21 10:45:57;;;;;;;26.52;8.80;;;2.10;1.00;;;;;;5035606;28;20212;-84
2024/01/21 10:48:23;;;;;;;25.35;8.15;;;2.10;1.00;;;;;;5018110;28;20180;-84
2024/01/21 10:50:52;;;;;;;28.33;9.50;;;2.10;1.00;;;;;;5035972;28;20166;-85
2024/01/21 10:53:19;;;;;;;26.65;8.60;;;2.10;1.00;;;;;;5035831;28;20166;-85
2024/01/21 10:55:45;;;;;;;25.98;9.45;;;2.10;1.00;;;;;;5036259;28;20161;-85
2024/01/21 10:58:12;;;;;;;26.95;8.73;;;2.10;1.00;;;;;;5034954;28;20244;-84
2024/01/21 11:00:39;;;;;;;28.00;9.45;;;2.10;1.00;;;;;;5017371;28;20174;-83
2024/01/21 11:03:38;;;;;;;27.13;8.75;;;2.20;1.00;;;;;;5035251;28;20189;-83
2024/01/21 11:06:08;;;;;;;27.08;9.38;;;2.20;1.00;;;;;;4981508;28;20170;-85
2024/01/21 11:08:35;;;;;;;28.88;9.18;;;2.20;1.00;;;;;;5035312;28;20181;-84
2024/01/21 11:11:12;;;;;;;32.10;10.48;;;2.30;1.00;;;;;;5035960;28;20205;-85
2024/01/21 11:13:41;;;;;;;27.00;9.18;;;2.40;1.00;;;;;;5035594;28;20200;-85
2024/01/21 11:16:30;;;;;;;27.00;9.70;;;2.30;1.00;;;;;;5035273;28;20232;-84
2024/01/21 11:19:08;;;;;;;28.60;9.57;;;2.40;1.00;;;;;;5034674;28;20174;-84
2024/01/21 11:21:40;;;;;;;28.70;10.25;;;2.40;1.00;;;;;;5035512;28;20249;-85
2024/01/21 11:24:09;;;;;;;33.40;8.90;;;2.40;1.00;;;;;;5035514;28;20154;-86
2024/01/21 11:26:37;;;;;;;26.75;8.35;;;2.40;1.00;;;;;;5035609;28;20236;-85
2024/01/21 11:29:21;;;;;;;28.30;10.73;;;2.40;1.00;;;;;;5018586;28;20198;-85
2024/01/21 11:31:51;;;;;;;36.45;12.30;;;2.40;1.00;;;;;;5035986;28;20146;-85
2024/01/21 11:34:17;;;;;;;27.83;9.95;;;2.40;1.00;;;;;;5020846;28;20173;-85
2024/01/21 11:36:46;;;;;;;29.27;10.05;;;2.40;1.00;;;;;;5020946;28;20236;-85
2024/01/21 11:39:11;;;;;;;30.75;10.25;;;2.40;1.00;;;;;;5039013;28;20166;-86
2024/01/21 11:41:40;;;;;;;29.13;10.40;;;2.60;1.00;;;;;;5039253;28;20173;-86
2024/01/21 11:44:22;;;;;;;29.48;11.02;;;2.60;1.00;;;;;;5039880;28;20162;-86
2024/01/21 11:46:49;;;;;;;31.40;8.88;;;2.70;1.00;;;;;;5040479;28;20194;-85
2024/01/21 11:49:15;;;;;;;28.67;10.07;;;2.70;1.00;;;;;;5022656;28;20166;-87
2024/01/21 11:51:41;;;;;;;27.00;10.60;;;2.80;1.00;;;;;;5041072;28;20178;-86
2024/01/21 11:54:07;;;;;;;28.93;10.80;;;2.80;1.00;;;;;;5022260;28;20516;-87
2024/01/21 11:56:35;;;;;;;25.65;8.70;;;2.80;1.00;;;;;;5039595;28;20201;-87
2024/01/21 11:59:00;;;;;;;25.35;7.90;;;2.90;1.00;;;;;;5021581;28;20165;-86
2024/01/21 12:01:27;;;;;;;23.47;7.33;;;3.00;1.00;;;;;;5038883;28;20169;-86
2024/01/21 12:03:56;;;;;;;22.52;6.25;;;3.10;1.00;;;;;;5040625;28;20587;-85
2024/01/21 12:06:22;;;;;;;23.35;5.15;;;3.30;1.00;;;;;;5021949;28;20263;-86
2024/01/21 12:08:48;;;;;;;22.58;6.68;;;3.40;1.00;;;;;;5038167;28;20683;-86
2024/01/21 12:11:18;;;;;;;25.67;7.82;;;3.50;1.00;;;;;;5037836;28;20172;-86
2024/01/21 12:13:44;;;;;;;24.58;6.70;;;3.60;1.00;;;;;;5020708;28;20201;-86
2024/01/21 12:16:10;;;;;;;24.40;6.63;;;3.70;1.00;;;;;;5038999;28;20174;-86
2024/01/21 12:18:40;;;;;;;23.90;5.95;;;3.70;1.00;;;;;;5038910;28;20245;-85
2024/01/21 12:21:06;;;;;;;25.20;5.80;;;3.70;1.00;;;;;;5038782;28;20198;-84
2024/01/21 12:23:31;;;;;;;24.05;6.30;;;3.80;1.00;;;;;;5038535;28;20177;-85
2024/01/21 12:25:57;;;;;;;21.23;6.50;;;3.80;1.00;;;;;;5038707;28;20162;-85
2024/01/21 12:28:23;;;;;;;21.40;5.10;;;3.70;1.00;;;;;;5039200;28;20166;-84
2024/01/21 12:30:50;;;;;;;24.43;5.97;;;3.70;1.00;;;;;;5039798;28;20292;-86
2024/01/21 12:33:15;;;;;;;20.15;5.50;;;3.70;1.00;;;;;;5022785;28;20420;-87